Time;durP1;ratioP1;P1;durP2;ratioP2;P2;SDS_P1;SDS_P2;PMS_P1;PMS_P2;Temp;Humidity;BMP_temperature;BMP_pressure;BME280_temperature;BME280_humidity;BME280_pressure;Samples;Min_cycle;Max_cycle;Signal;HPM_P1;HPM_P2
2023/04/13 00:00:20;;;;;;;2.17;1.60;;;;;;;7.89;56.47;99213.13;688567;28;1173;-78
2023/04/13 00:00:41;;;;;;;2.38;1.80;;;;;;;7.96;56.61;99232.25;685883;28;890;-79
2023/04/13 00:01:01;;;;;;;2.10;1.80;;;;;;;7.91;56.52;99218.31;685758;28;1302;-78
2023/04/13 00:01:22;;;;;;;1.85;1.67;;;;;;;7.89;56.52;99213.13;686506;28;1517;-78
2023/04/13 00:01:44;;;;;;;1.50;1.40;;;;;;;7.88;56.53;99216.56;683342;29;1592;-78
2023/04/13 00:02:05;;;;;;;1.63;1.50;;;;;;;7.90;56.50;99214.88;685647;28;1246;-78
2023/04/13 00:02:26;;;;;;;1.80;1.60;;;;;;;7.92;56.56;99223.53;686048;28;776;-78
2023/04/13 00:02:52;;;;;;;1.80;1.70;;;;;;;7.87;56.81;99227.78;680326;29;1103;-78
2023/04/13 00:03:15;;;;;;;1.75;1.65;;;;;;;7.81;57.32;99207.81;680409;29;1152;-78
2023/04/13 00:03:36;;;;;;;1.77;1.50;;;;;;;7.89;56.52;99220.91;683168;29;1349;-78
2023/04/13 00:03:56;;;;;;;1.80;1.50;;;;;;;7.94;56.61;99220.97;683210;28;962;-79
2023/04/13 00:04:17;;;;;;;1.60;1.50;;;;;;;7.86;56.70;99207.00;683141;29;1104;-79
2023/04/13 00:04:38;;;;;;;1.60;1.50;;;;;;;7.86;56.56;99207.88;682345;29;1135;-78
2023/04/13 00:04:59;;;;;;;1.70;1.60;;;;;;;7.95;56.56;99228.78;683131;29;1116;-79
2023/04/13 00:05:21;;;;;;;1.60;1.50;;;;;;;7.83;56.83;99207.84;680873;29;1260;-79
2023/04/13 00:05:42;;;;;;;2.70;1.60;;;;;;;7.86;56.66;99207.00;683253;29;840;-79
2023/04/13 00:06:03;;;;;;;2.52;1.46;;;;;;;7.88;56.46;99213.97;682970;28;1178;-78
2023/04/13 00:06:24;;;;;;;2.65;1.48;;;;;;;7.86;56.71;99207.88;683324;29;816;-78
2023/04/13 00:06:45;;;;;;;1.42;1.33;;;;;;;7.90;56.68;99214.88;683029;29;1214;-78
2023/04/13 00:07:06;;;;;;;1.95;1.48;;;;;;;7.92;56.76;99214.88;680521;29;987;-78
2023/04/13 00:07:27;;;;;;;2.30;1.55;;;;;;;7.97;56.79;99227.94;683163;29;784;-79
2023/04/13 00:07:48;;;;;;;1.80;1.50;;;;;;;7.88;56.54;99208.78;685795;28;1225;-79
2023/04/13 00:08:29;;;;;;;1.60;1.50;;;;;;;7.95;56.17;99217.53;685683;28;1220;-79
2023/04/13 00:08:53;;;;;;;1.50;1.40;;;;;;;7.90;56.57;99207.06;686233;28;1282;-78
2023/04/13 00:09:15;;;;;;;1.58;1.48;;;;;;;7.90;56.03;99193.19;689246;28;1102;-79
2023/04/13 00:09:36;;;;;;;1.60;1.50;;;;;;;8.01;56.40;99214.13;688544;28;820;-78
2023/04/13 00:09:57;;;;;;;1.60;1.50;;;;;;;7.88;56.05;99193.19;689510;28;1039;-78
2023/04/13 00:10:20;;;;;;;1.40;1.30;;;;;;;7.90;56.22;99190.59;685773;28;1299;-78
2023/04/13 00:10:41;;;;;;;1.40;1.30;;;;;;;7.98;56.02;99206.31;680591;29;1355;-78
2023/04/13 00:11:03;;;;;;;1.40;1.30;;;;;;;8.04;55.95;99216.78;683033;29;1187;-78
2023/04/13 00:11:26;;;;;;;1.42;1.33;;;;;;;7.99;56.36;99195.06;685933;28;855;-78
2023/04/13 00:11:47;;;;;;;2.10;1.50;;;;;;;8.00;56.04;99207.19;685722;28;1113;-79
2023/04/13 00:12:09;;;;;;;2.30;1.60;;;;;;;8.00;56.28;99204.59;685773;28;1036;-78
2023/04/13 00:12:32;;;;;;;1.60;1.40;;;;;;;7.95;55.83;99191.53;688643;28;875;-78
2023/04/13 00:12:52;;;;;;;1.50;1.40;;;;;;;7.99;56.09;99202.84;688593;28;1164;-79
2023/04/13 00:13:14;;;;;;;1.60;1.50;;;;;;;7.94;56.31;99195.00;685815;28;1235;-78
2023/04/13 00:13:39;;;;;;;1.80;1.50;;;;;;;7.98;56.15;99201.09;683252;29;987;-78
2023/04/13 00:14:00;;;;;;;1.60;1.40;;;;;;;7.91;55.83;99195.81;680451;29;1339;-79
2023/04/13 00:14:26;;;;;;;1.40;1.30;;;;;;;7.98;55.95;99198.50;684416;28;901;-78
2023/04/13 00:14:49;;;;;;;1.40;1.30;;;;;;;7.85;56.12;99179.28;685886;28;1199;-78
2023/04/13 00:15:10;;;;;;;1.50;1.40;;;;;;;7.90;56.08;99188.00;685832;28;946;-78
2023/04/13 00:15:33;;;;;;;1.57;1.40;;;;;;;7.93;56.41;99194.13;687520;28;745;-78
2023/04/13 00:15:54;;;;;;;1.50;1.30;;;;;;;7.90;56.28;99193.19;690273;28;1148;-78
2023/04/13 00:16:15;;;;;;;1.42;1.30;;;;;;;7.92;55.91;99197.56;688474;28;1084;-78
2023/04/13 00:16:36;;;;;;;1.50;1.40;;;;;;;7.90;55.96;99188.88;688693;28;906;-78
2023/04/13 00:16:56;;;;;;;1.80;1.43;;;;;;;7.94;56.23;99193.25;685277;28;1002;-78
2023/04/13 00:17:17;;;;;;;2.27;1.40;;;;;;;7.94;55.79;99195.00;686571;28;1025;-79
2023/04/13 00:17:37;;;;;;;2.20;1.40;;;;;;;7.94;56.18;99185.47;686005;28;796;-79
2023/04/13 00:17:58;;;;;;;1.70;1.40;;;;;;;8.02;55.69;99197.69;685620;28;1006;-78
2023/04/13 00:18:19;;;;;;;1.70;1.48;;;;;;;8.02;55.91;99192.47;688355;28;1004;-78
2023/04/13 00:18:40;;;;;;;1.58;1.40;;;;;;;7.97;55.83;99183.78;688655;28;827;-78
2023/04/13 00:19:00;;;;;;;1.90;1.40;;;;;;;7.99;56.40;99182.91;685776;28;1094;-79
2023/04/13 00:19:22;;;;;;;2.80;1.70;;;;;;;8.02;56.13;99192.47;680607;29;1171;-79
2023/04/13 00:19:46;;;;;;;2.53;1.60;;;;;;;8.11;55.86;99202.13;680503;29;1918;-79
2023/04/13 00:20:12;;;;;;;3.00;1.65;;;;;;;8.03;55.91;99186.44;680404;29;1145;-78
2023/04/13 00:20:32;;;;;;;2.50;1.50;;;;;;;8.01;56.22;99176.03;685862;28;1123;-78
2023/04/13 00:20:53;;;;;;;2.30;1.42;;;;;;;8.04;56.17;99185.59;685829;28;1172;-78
2023/04/13 00:21:15;;;;;;;1.50;1.40;;;;;;;8.10;56.08;99190.84;682916;28;1290;-78
2023/04/13 00:21:36;;;;;;;1.48;1.38;;;;;;;8.19;55.67;99201.38;683235;29;828;-78
2023/04/13 00:21:59;;;;;;;1.52;1.42;;;;;;;8.18;55.41;99191.81;683025;29;1152;-78
2023/04/13 00:22:19;;;;;;;1.85;1.60;;;;;;;8.13;55.28;99183.13;683103;29;1095;-79
2023/04/13 00:22:44;;;;;;;1.88;1.50;;;;;;;8.10;55.50;99177.88;683211;29;1253;-78
2023/04/13 00:23:05;;;;;;;1.50;1.40;;;;;;;8.15;55.68;99178.81;680282;29;1028;-78
2023/04/13 00:23:25;;;;;;;1.40;1.30;;;;;;;8.10;55.27;99177.88;680729;29;682;-78
2023/04/13 00:23:46;;;;;;;1.73;1.30;;;;;;;8.15;55.45;99184.00;683221;29;1038;-78
2023/04/13 00:24:07;;;;;;;1.90;1.30;;;;;;;8.17;55.89;99186.63;685625;28;956;-78
2023/04/13 00:24:28;;;;;;;1.75;1.20;;;;;;;8.14;55.11;99178.78;685809;28;1321;-78
2023/04/13 00:24:49;;;;;;;2.00;1.30;;;;;;;8.17;55.74;99178.84;683530;28;1058;-78
2023/04/13 00:25:13;;;;;;;2.00;1.30;;;;;;;8.22;55.21;99191.03;685671;28;1114;-78
2023/04/13 00:25:33;;;;;;;1.90;1.50;;;;;;;8.17;55.48;99182.28;683297;29;820;-78
2023/04/13 00:25:55;;;;;;;1.40;1.30;;;;;;;8.18;55.36;99173.63;683223;29;1129;-78
2023/04/13 00:26:19;;;;;;;1.50;1.40;;;;;;;8.15;55.64;99171.00;685578;28;1182;-78
2023/04/13 00:26:40;;;;;;;1.40;1.30;;;;;;;8.14;55.53;99169.28;683275;29;769;-79
2023/04/13 00:27:00;;;;;;;1.35;1.25;;;;;;;8.17;55.35;99177.09;685594;28;1154;-78
2023/04/13 00:27:25;;;;;;;1.40;1.30;;;;;;;8.22;55.05;99192.72;685799;28;1534;-78
2023/04/13 00:27:46;;;;;;;1.50;1.40;;;;;;;8.15;55.35;99173.59;688574;28;1201;-78
2023/04/13 00:28:07;;;;;;;1.55;1.45;;;;;;;8.14;55.78;99174.47;688444;28;974;-78
2023/04/13 00:28:28;;;;;;;2.05;1.40;;;;;;;8.11;55.47;99171.81;685878;28;1088;-79
2023/04/13 00:28:49;;;;;;;3.80;1.42;;;;;;;8.16;55.14;99174.50;685844;28;1094;-78
2023/04/13 00:29:10;;;;;;;3.47;1.50;;;;;;;8.21;55.26;99184.09;681075;29;1047;-78
2023/04/13 00:29:30;;;;;;;3.40;1.50;;;;;;;8.17;55.15;99173.63;683670;28;883;-79
2023/04/13 00:29:52;;;;;;;2.13;1.30;;;;;;;8.08;55.13;99161.41;683136;29;1262;-79
2023/04/13 00:30:14;;;;;;;2.03;1.40;;;;;;;8.13;54.94;99170.13;685633;28;1114;-79
2023/04/13 00:30:35;;;;;;;1.50;1.40;;;;;;;8.13;55.09;99170.13;683261;29;855;-79
2023/04/13 00:30:58;;;;;;;2.28;1.40;;;;;;;8.14;55.42;99165.78;683091;29;1078;-79
2023/04/13 00:31:19;;;;;;;2.40;1.58;;;;;;;8.12;54.96;99170.09;683086;29;1364;-78
2023/04/13 00:31:40;;;;;;;2.08;1.42;;;;;;;8.20;55.48;99184.06;688543;28;1368;-78
2023/04/13 00:32:01;;;;;;;1.60;1.50;;;;;;;8.15;55.45;99176.22;682905;29;1245;-79
2023/04/13 00:32:44;;;;;;;1.40;1.30;;;;;;;8.22;55.15;99174.53;685848;28;809;-78
2023/04/13 00:33:05;;;;;;;1.52;1.42;;;;;;;8.23;55.43;99171.09;685575;28;1152;-78
2023/04/13 00:33:26;;;;;;;1.70;1.50;;;;;;;8.26;55.00;99165.06;683232;28;1017;-78
2023/04/13 00:33:46;;;;;;;1.55;1.45;;;;;;;8.24;54.92;99172.84;688428;28;1154;-79
2023/04/13 00:34:07;;;;;;;1.50;1.40;;;;;;;8.20;55.06;99155.47;683052;29;1263;-78
2023/04/13 00:34:27;;;;;;;1.50;1.40;;;;;;;8.25;54.93;99155.53;683231;29;914;-78
2023/04/13 00:34:48;;;;;;;1.90;1.60;;;;;;;8.28;54.96;99168.56;683091;29;1093;-78
2023/04/13 00:35:11;;;;;;;2.00;1.58;;;;;;;8.30;55.00;99172.06;683004;29;1287;-79
2023/04/13 00:35:32;;;;;;;3.03;1.60;;;;;;;8.32;55.12;99165.13;685801;28;819;-78
2023/04/13 00:35:52;;;;;;;2.93;1.40;;;;;;;8.42;54.60;99177.38;685951;28;1080;-79
2023/04/13 00:36:13;;;;;;;3.17;1.37;;;;;;;8.35;54.43;99167.75;685391;28;1090;-78
2023/04/13 00:36:33;;;;;;;3.00;1.40;;;;;;;8.22;54.49;99159.84;685611;28;1316;-78
2023/04/13 00:36:54;;;;;;;2.17;1.50;;;;;;;8.29;54.80;99162.50;685606;28;966;-78
2023/04/13 00:37:14;;;;;;;1.75;1.50;;;;;;;8.36;54.93;99172.97;683001;28;1104;-78
2023/04/13 00:37:36;;;;;;;1.52;1.40;;;;;;;8.30;54.51;99156.47;683174;28;1294;-79
2023/04/13 00:37:57;;;;;;;1.50;1.25;;;;;;;8.29;54.69;99152.13;685730;28;1108;-79
2023/04/13 00:38:18;;;;;;;2.10;1.30;;;;;;;8.28;54.80;99153.84;683052;29;1326;-79
2023/04/13 00:39:07;;;;;;;1.60;1.30;;;;;;;8.42;54.80;99179.97;680523;29;1055;-78
2023/04/13 00:39:30;;;;;;;1.30;1.20;;;;;;;8.33;54.83;99167.75;685906;28;792;-78
2023/04/13 00:39:50;;;;;;;1.50;1.40;;;;;;;8.31;54.71;99166.00;683030;28;1960;-78
2023/04/13 00:40:12;;;;;;;1.50;1.40;;;;;;;8.30;54.74;99164.25;680408;29;963;-78
2023/04/13 00:40:32;;;;;;;1.55;1.45;;;;;;;8.28;54.85;99164.22;683232;29;1222;-78
2023/04/13 00:40:54;;;;;;;1.63;1.53;;;;;;;8.38;54.70;99178.22;683194;29;1026;-78
2023/04/13 00:41:15;;;;;;;1.60;1.50;;;;;;;8.35;54.87;99159.97;680285;29;1043;-78
2023/04/13 00:42:00;;;;;;;1.75;1.65;;;;;;;8.39;54.57;99187.75;680633;29;796;-78
2023/04/13 00:42:20;;;;;;;1.85;1.42;;;;;;;8.41;54.54;99165.22;681322;29;910;-78
2023/04/13 00:42:45;;;;;;;1.60;1.50;;;;;;;8.38;54.70;99161.72;684099;28;834;-78
2023/04/13 00:43:06;;;;;;;1.50;1.40;;;;;;;8.43;54.61;99160.06;684211;28;1233;-78
2023/04/13 00:43:26;;;;;;;1.40;1.30;;;;;;;8.43;54.13;99153.16;677861;29;1056;-78
2023/04/13 00:43:47;;;;;;;2.00;1.30;;;;;;;8.46;54.25;99147.97;677861;29;1191;-78
2023/04/13 00:44:08;;;;;;;2.97;1.50;;;;;;;8.54;54.24;99161.03;680431;29;1010;-78
2023/04/13 00:44:29;;;;;;;3.55;1.75;;;;;;;8.56;53.73;99153.25;683209;29;982;-78
2023/04/13 00:44:53;;;;;;;2.78;1.73;;;;;;;8.68;53.80;99163.81;685694;28;1289;-78
2023/04/13 00:45:15;;;;;;;1.70;1.60;;;;;;;8.54;53.58;99149.78;682946;29;998;-79
2023/04/13 00:45:37;;;;;;;1.58;1.40;;;;;;;8.63;53.64;99161.19;680507;29;753;-78
2023/04/13 00:45:59;;;;;;;1.80;1.45;;;;;;;8.60;53.55;99147.25;680340;29;1239;-78
2023/04/13 00:46:21;;;;;;;2.00;1.50;;;;;;;8.66;53.93;99164.66;683062;29;1090;-79
2023/04/13 00:46:45;;;;;;;1.80;1.48;;;;;;;8.66;53.41;99155.13;683153;29;1288;-79
2023/04/13 00:47:06;;;;;;;1.80;1.48;;;;;;;8.69;53.42;99147.38;682794;29;1063;-79
2023/04/13 00:47:31;;;;;;;2.30;1.60;;;;;;;8.73;53.21;99162.13;683163;29;803;-79
2023/04/13 00:47:52;;;;;;;3.30;1.70;;;;;;;8.76;53.25;99151.75;683126;29;1037;-79
2023/04/13 00:48:13;;;;;;;2.83;1.58;;;;;;;8.76;53.62;99156.97;683024;29;997;-78
2023/04/13 00:48:34;;;;;;;3.70;1.70;;;;;;;8.77;53.21;99144.81;684613;28;1190;-79
2023/04/13 00:48:57;;;;;;;2.60;1.60;;;;;;;8.80;53.16;99151.78;682970;29;1340;-78
2023/04/13 00:49:17;;;;;;;2.60;1.73;;;;;;;8.81;53.13;99153.53;685611;28;1147;-78
2023/04/13 00:49:38;;;;;;;1.75;1.65;;;;;;;8.86;53.43;99157.03;683157;29;832;-78
2023/04/13 00:50:00;;;;;;;1.90;1.70;;;;;;;8.91;53.35;99168.38;683068;29;996;-78
2023/04/13 00:50:21;;;;;;;1.73;1.50;;;;;;;8.97;53.15;99158.00;680356;28;1126;-78
2023/04/13 00:50:41;;;;;;;2.47;1.50;;;;;;;8.93;52.86;99148.44;680544;29;949;-79
2023/04/13 00:51:02;;;;;;;2.67;1.60;;;;;;;9.09;53.16;99166.78;685473;28;1203;-78
2023/04/13 00:51:23;;;;;;;3.15;1.70;;;;;;;9.08;52.79;99163.28;689145;28;843;-78
2023/04/13 00:51:44;;;;;;;2.93;1.80;;;;;;;9.09;52.49;99157.22;685812;28;910;-79
2023/04/13 00:52:08;;;;;;;2.60;1.60;;;;;;;9.16;52.49;99156.41;682834;29;1271;-78
2023/04/13 00:52:29;;;;;;;2.25;1.40;;;;;;;9.22;51.94;99155.59;685841;28;866;-78
2023/04/13 00:52:50;;;;;;;1.60;1.20;;;;;;;9.23;51.71;99157.34;680482;29;1194;-78
2023/04/13 00:53:12;;;;;;;1.30;1.10;;;;;;;9.26;51.95;99173.00;685620;28;1050;-78
2023/04/13 00:53:33;;;;;;;1.20;1.10;;;;;;;9.39;51.53;99150.50;685743;28;1903;-79
2023/04/13 00:53:53;;;;;;;1.30;1.20;;;;;;;9.56;51.08;99140.22;685758;28;1088;-78
2023/04/13 00:54:15;;;;;;;1.20;1.10;;;;;;;9.71;50.91;99154.19;682927;29;1157;-78
2023/04/13 00:54:37;;;;;;;1.30;1.10;;;;;;;9.91;50.68;99174.25;683121;29;1510;-78
2023/04/13 00:55:01;;;;;;;1.90;1.38;;;;;;;9.89;50.46;99142.13;680416;29;1099;-79
2023/04/13 00:55:23;;;;;;;2.20;1.40;;;;;;;9.99;50.23;99160.41;683199;28;1986;-79
2023/04/13 00:55:47;;;;;;;2.40;1.30;;;;;;;10.05;49.79;99148.25;683131;29;1209;-79
2023/04/13 00:56:08;;;;;;;2.40;1.10;;;;;;;10.09;49.93;99152.63;685575;28;1037;-79
2023/04/13 00:56:29;;;;;;;1.90;1.10;;;;;;;10.09;49.85;99150.88;683188;29;780;-78
2023/04/13 00:56:51;;;;;;;1.20;1.10;;;;;;;10.19;49.84;99159.59;685523;28;1194;-78
2023/04/13 00:57:11;;;;;;;1.48;1.20;;;;;;;10.22;49.31;99157.03;685675;28;1252;-78
2023/04/13 00:57:33;;;;;;;2.40;1.50;;;;;;;10.25;49.45;99148.34;682400;29;890;-78
2023/04/13 00:57:54;;;;;;;3.20;1.38;;;;;;;10.21;49.74;99149.19;683060;29;1289;-79
2023/04/13 00:58:15;;;;;;;2.85;1.27;;;;;;;10.21;49.57;99141.38;685580;28;1035;-78
2023/04/13 00:58:36;;;;;;;2.60;1.10;;;;;;;10.34;49.15;99156.22;685825;28;1385;-78
2023/04/13 00:58:57;;;;;;;1.80;1.10;;;;;;;10.23;49.60;99142.25;685727;28;1119;-78
2023/04/13 00:59:19;;;;;;;1.20;0.90;;;;;;;10.27;49.25;99144.03;683065;29;1022;-78
2023/04/13 00:59:40;;;;;;;1.00;0.90;;;;;;;10.27;49.30;99133.59;683122;29;1926;-78
2023/04/13 01:00:06;;;;;;;0.90;0.90;;;;;;;10.33;49.18;99164.88;682906;29;1126;-79
2023/04/13 01:00:27;;;;;;;0.95;0.90;;;;;;;10.33;49.43;99162.28;685696;28;2005;-78
2023/04/13 01:00:48;;;;;;;1.20;1.00;;;;;;;10.40;48.80;99150.16;687139;28;1101;-78
2023/04/13 01:01:09;;;;;;;1.30;1.10;;;;;;;10.44;49.25;99161.47;689666;28;1363;-78
2023/04/13 01:01:29;;;;;;;1.40;1.17;;;;;;;10.34;49.12;99137.97;690972;28;1165;-78
2023/04/13 01:01:55;;;;;;;1.70;1.10;;;;;;;10.39;49.04;99151.03;688357;28;1040;-78
2023/04/13 01:02:15;;;;;;;1.70;1.10;;;;;;;10.45;49.14;99152.75;685625;28;1995;-79
2023/04/13 01:02:40;;;;;;;1.30;1.00;;;;;;;10.47;48.86;99158.84;685801;28;904;-79
2023/04/13 01:03:01;;;;;;;2.03;1.10;;;;;;;10.44;48.75;99156.25;685596;28;1177;-78
2023/04/13 01:03:21;;;;;;;2.08;1.17;;;;;;;10.45;48.76;99157.97;688291;28;900;-78
2023/04/13 01:03:42;;;;;;;2.15;1.10;;;;;;;10.41;48.81;99144.94;693881;28;811;-79
2023/04/13 01:04:04;;;;;;;1.40;1.00;;;;;;;10.47;48.71;99144.09;688208;28;1176;-78
2023/04/13 01:04:32;;;;;;;1.60;1.10;;;;;;;10.51;48.55;99137.13;685668;28;1261;-79
2023/04/13 01:04:54;;;;;;;2.05;1.20;;;;;;;10.52;48.46;99138.88;677766;29;1881;-79
2023/04/13 01:05:16;;;;;;;2.20;1.20;;;;;;;10.55;48.41;99146.69;680428;29;1048;-79
2023/04/13 01:05:55;;;;;;;1.98;1.00;;;;;;;10.61;48.38;99151.03;683036;29;1273;-79
2023/04/13 01:06:27;;;;;;;2.50;1.00;;;;;;;10.55;48.38;99133.66;682843;29;1971;-78
2023/04/13 01:07:07;;;;;;;2.70;1.30;;;;;;;10.65;48.34;99155.41;682850;29;1164;-78
2023/04/13 01:07:36;;;;;;;2.20;1.20;;;;;;;10.66;48.47;99158.03;680427;29;860;-79
2023/04/13 01:08:14;;;;;;;1.40;1.20;;;;;;;10.73;48.28;99173.66;683069;29;1005;-78
2023/04/13 01:08:38;;;;;;;2.53;1.20;;;;;;;10.68;48.31;99138.03;685808;28;871;-78
2023/04/13 01:09:07;;;;;;;2.28;1.17;;;;;;;10.65;48.14;99135.44;683017;29;1295;-79
2023/04/13 01:09:39;;;;;;;1.40;1.10;;;;;;;10.69;47.90;99126.72;683121;29;823;-78
2023/04/13 01:10:10;;;;;;;1.40;1.10;;;;;;;10.67;47.91;99136.28;683018;29;1010;-78
2023/04/13 01:10:59;;;;;;;2.38;1.20;;;;;;;10.80;47.68;99136.28;685186;28;836;-78
2023/04/13 01:11:31;;;;;;;1.58;1.20;;;;;;;10.85;47.83;99150.22;687612;28;901;-79
2023/04/13 01:12:08;;;;;;;1.90;1.10;;;;;;;10.86;47.63;99157.16;688295;28;1281;-78
2023/04/13 01:12:37;;;;;;;1.95;1.10;;;;;;;10.85;47.61;99145.00;688428;28;904;-79
2023/04/13 01:13:01;;;;;;;1.70;1.10;;;;;;;10.89;47.46;99149.38;688344;28;1092;-78
2023/04/13 01:13:39;;;;;;;1.30;1.10;;;;;;;10.73;47.73;99137.16;685769;28;1109;-78
2023/04/13 01:14:11;;;;;;;1.77;1.20;;;;;;;10.79;47.47;99131.94;682872;29;986;-78
2023/04/13 01:14:39;;;;;;;1.67;1.10;;;;;;;10.87;47.33;99143.25;680505;29;912;-78
2023/04/13 01:15:13;;;;;;;3.15;1.30;;;;;;;10.86;47.37;99145.88;677626;29;1112;-79
2023/04/13 01:15:38;;;;;;;3.53;1.30;;;;;;;10.92;47.65;99151.97;680451;29;887;-79
2023/04/13 01:16:05;;;;;;;2.30;1.20;;;;;;;10.86;47.35;99131.06;682831;29;969;-78
2023/04/13 01:16:38;;;;;;;1.60;1.20;;;;;;;10.89;47.35;99148.47;685603;28;1332;-78
2023/04/13 01:17:06;;;;;;;2.83;1.30;;;;;;;10.87;47.41;99124.97;685403;28;1083;-78
2023/04/13 01:17:31;;;;;;;2.80;1.25;;;;;;;10.87;47.49;99132.81;688329;28;855;-78
2023/04/13 01:17:56;;;;;;;1.92;1.20;;;;;;;10.83;47.45;99128.47;685528;28;978;-78
2023/04/13 01:18:19;;;;;;;2.60;1.10;;;;;;;10.78;47.57;99130.19;682896;29;1330;-79
2023/04/13 01:18:44;;;;;;;2.97;1.10;;;;;;;10.79;47.77;99125.00;683045;29;846;-78
2023/04/13 01:19:11;;;;;;;1.25;1.02;;;;;;;10.86;47.61;99128.47;680203;29;1170;-78
2023/04/13 01:19:56;;;;;;;1.30;1.00;;;;;;;10.85;47.81;99168.47;683074;29;959;-79
2023/04/13 01:20:19;;;;;;;4.00;1.20;;;;;;;10.73;47.86;99142.38;682991;29;1043;-78
2023/04/13 01:20:43;;;;;;;3.30;1.20;;;;;;;10.71;47.98;99159.75;685507;28;944;-79
2023/04/13 01:21:11;;;;;;;2.35;1.20;;;;;;;10.72;47.98;99136.28;685134;28;1255;-78
2023/04/13 01:21:34;;;;;;;1.67;1.20;;;;;;;10.72;47.89;99135.41;685639;28;962;-79
2023/04/13 01:21:55;;;;;;;2.60;1.40;;;;;;;10.80;47.96;99149.34;680379;29;1042;-78
2023/04/13 01:22:24;;;;;;;2.78;1.50;;;;;;;10.77;47.87;99138.91;682876;29;1121;-78
2023/04/13 01:23:00;;;;;;;2.00;1.20;;;;;;;10.65;48.02;99145.88;685565;28;832;-79
2023/04/13 01:23:29;;;;;;;1.23;1.10;;;;;;;10.73;48.08;99144.97;685671;28;1052;-79
2023/04/13 01:24:31;;;;;;;1.27;1.10;;;;;;;10.70;48.25;99145.88;685682;28;1064;-79
2023/04/13 01:24:56;;;;;;;2.20;1.40;;;;;;;10.59;48.52;99155.41;685721;28;1045;-78
2023/04/13 01:25:38;;;;;;;2.00;1.30;;;;;;;10.53;48.54;99162.34;689475;28;1202;-78
2023/04/13 01:26:05;;;;;;;1.10;1.00;;;;;;;10.46;48.75;99149.28;688103;28;1007;-78
2023/04/13 01:26:42;;;;;;;1.40;1.10;;;;;;;10.24;49.04;99138.78;685738;28;902;-78
2023/04/13 01:27:10;;;;;;;2.20;1.20;;;;;;;10.28;49.81;99156.19;685425;28;1130;-78
2023/04/13 01:27:43;;;;;;;2.10;1.20;;;;;;;10.18;50.02;99141.38;682951;29;2021;-78
2023/04/13 01:28:14;;;;;;;1.40;1.20;;;;;;;10.03;50.31;99150.88;682796;29;1086;-78
2023/04/13 01:28:37;;;;;;;1.60;1.30;;;;;;;9.98;50.32;99126.50;683060;29;1387;-78
2023/04/13 01:28:59;;;;;;;1.40;1.30;;;;;;;9.86;50.35;99136.03;688207;28;1228;-79
2023/04/13 01:29:20;;;;;;;2.13;1.30;;;;;;;9.88;50.87;99138.63;685637;28;1156;-78
2023/04/13 01:29:45;;;;;;;2.20;1.30;;;;;;;9.81;51.21;99135.13;683069;29;1148;-78
2023/04/13 01:30:09;;;;;;;2.40;1.20;;;;;;;9.86;51.47;99141.25;682870;29;1156;-79
2023/04/13 01:30:32;;;;;;;1.17;1.08;;;;;;;9.78;51.79;99135.13;685589;28;840;-78
2023/04/13 01:30:54;;;;;;;1.30;1.20;;;;;;;9.66;52.30;99124.63;685605;28;1049;-79
2023/04/13 01:31:17;;;;;;;1.40;1.30;;;;;;;9.78;52.56;99150.75;682879;29;1173;-79
2023/04/13 01:31:38;;;;;;;1.40;1.30;;;;;;;9.73;52.50;99131.63;683062;29;1319;-79
2023/04/13 01:31:59;;;;;;;1.50;1.40;;;;;;;9.76;52.50;99138.59;682867;29;1013;-78
2023/04/13 01:32:20;;;;;;;1.60;1.50;;;;;;;9.76;52.71;99129.03;680268;29;1073;-78
2023/04/13 01:32:42;;;;;;;1.45;1.35;;;;;;;9.66;53.02;99135.94;680442;29;938;-78
2023/04/13 01:33:03;;;;;;;1.90;1.38;;;;;;;9.67;52.79;99131.56;682756;29;1209;-79
2023/04/13 01:33:29;;;;;;;2.40;1.30;;;;;;;9.66;53.16;99129.84;685676;28;872;-79
2023/04/13 01:33:50;;;;;;;2.42;1.40;;;;;;;9.63;53.57;99129.84;683073;29;1168;-79
2023/04/13 01:34:11;;;;;;;2.10;1.40;;;;;;;9.60;53.53;99131.53;682796;29;1274;-79
2023/04/13 01:34:32;;;;;;;1.90;1.42;;;;;;;9.62;53.81;99139.38;685703;28;1189;-78
2023/04/13 01:34:53;;;;;;;2.25;1.50;;;;;;;9.56;53.90;99150.63;688318;28;866;-79
2023/04/13 01:35:14;;;;;;;2.40;1.50;;;;;;;9.62;54.21;99138.47;685552;28;1381;-78
2023/04/13 01:35:36;;;;;;;1.80;1.20;;;;;;;9.64;54.07;99132.44;680347;29;1528;-78
2023/04/13 01:35:59;;;;;;;1.10;1.10;;;;;;;9.74;53.98;99149.00;683003;29;1036;-79
2023/04/13 01:36:21;;;;;;;1.80;1.10;;;;;;;9.66;54.41;99133.34;680281;29;1234;-78
2023/04/13 01:36:42;;;;;;;2.47;1.10;;;;;;;9.65;54.38;99128.09;685721;28;1722;-79
2023/04/13 01:37:05;;;;;;;3.65;1.20;;;;;;;9.66;54.61;99142.88;685400;28;1078;-79
2023/04/13 01:37:26;;;;;;;3.10;1.40;;;;;;;9.70;54.63;99136.78;683041;29;1888;-79
2023/04/13 01:37:53;;;;;;;2.35;1.50;;;;;;;9.69;54.62;99122.91;683116;29;1180;-78
2023/04/13 01:38:23;;;;;;;1.90;1.30;;;;;;;9.71;54.65;99130.75;685794;28;1183;-78
2023/04/13 01:38:45;;;;;;;1.85;1.25;;;;;;;9.72;54.59;99135.09;680506;28;941;-79
2023/04/13 01:39:06;;;;;;;1.58;1.30;;;;;;;9.75;54.73;99137.69;680286;28;2021;-79
2023/04/13 01:39:30;;;;;;;1.73;1.25;;;;;;;9.65;55.00;99139.38;685872;28;1288;-78
2023/04/13 01:39:57;;;;;;;2.08;1.40;;;;;;;9.69;54.96;99135.06;685767;28;1088;-79
2023/04/13 01:40:26;;;;;;;2.00;1.40;;;;;;;9.67;54.88;99126.38;683142;29;2050;-79
2023/04/13 01:40:49;;;;;;;3.38;1.40;;;;;;;9.70;55.10;99131.59;683150;29;1299;-79
2023/04/13 01:41:10;;;;;;;2.78;1.08;;;;;;;9.62;54.90;99141.09;683063;29;1137;-79
2023/04/13 01:41:36;;;;;;;2.78;1.30;;;;;;;9.64;55.11;99127.22;683081;29;1493;-79
2023/04/13 01:41:58;;;;;;;2.00;1.30;;;;;;;9.62;55.17;99131.56;683142;29;1099;-79
2023/04/13 01:42:18;;;;;;;1.75;1.27;;;;;;;9.63;55.21;99122.03;685757;28;1189;-79
2023/04/13 01:42:41;;;;;;;1.55;1.20;;;;;;;9.53;55.50;99123.69;683134;29;1508;-79
2023/04/13 01:43:02;;;;;;;1.52;1.20;;;;;;;9.58;55.57;99137.59;682841;29;1364;-79
2023/04/13 01:43:32;;;;;;;1.50;1.27;;;;;;;9.59;56.03;99129.81;683054;28;898;-78
2023/04/13 01:44:02;;;;;;;1.95;1.77;;;;;;;9.55;55.81;99107.22;685558;28;1118;-77
2023/04/13 01:44:32;;;;;;;3.50;1.90;;;;;;;9.56;55.70;99122.00;680534;29;799;-78
2023/04/13 01:44:53;;;;;;;4.00;1.60;;;;;;;9.54;55.69;99120.22;680241;29;948;-79
2023/04/13 01:45:20;;;;;;;3.90;1.60;;;;;;;9.62;55.86;99134.16;682860;29;1080;-78
2023/04/13 01:46:03;;;;;;;1.30;1.20;;;;;;;9.54;56.26;99139.34;682977;29;909;-79
2023/04/13 01:46:33;;;;;;;1.33;1.10;;;;;;;9.45;56.17;99137.53;683092;29;848;-79
2023/04/13 01:47:14;;;;;;;3.42;1.40;;;;;;;9.54;56.22;99134.13;685324;28;1137;-78
2023/04/13 01:47:58;;;;;;;3.38;1.20;;;;;;;9.60;56.27;99125.47;685668;28;851;-78
2023/04/13 01:48:45;;;;;;;5.18;1.70;;;;;;;9.58;56.39;99130.66;688344;28;771;-79
2023/04/13 01:49:25;;;;;;;1.58;1.23;;;;;;;9.62;56.14;99141.09;691201;28;807;-79
2023/04/13 01:50:24;;;;;;;2.30;1.10;;;;;;;9.60;56.29;99130.69;685536;28;1176;-79
2023/04/13 01:51:04;;;;;;;3.78;1.20;;;;;;;9.51;56.69;99136.69;693781;28;1075;-79
2023/04/13 01:51:34;;;;;;;2.30;1.30;;;;;;;9.50;56.83;99136.69;691147;28;891;-80
2023/04/13 01:51:57;;;;;;;1.48;1.10;;;;;;;9.54;56.61;99143.66;690269;28;1264;-80
2023/04/13 01:52:22;;;;;;;1.40;1.17;;;;;;;9.50;56.43;99134.97;682817;29;1274;-80
2023/04/13 01:52:43;;;;;;;1.30;1.20;;;;;;;9.45;56.75;99121.91;688475;28;804;-79
2023/04/13 01:53:14;;;;;;;1.60;1.30;;;;;;;9.40;56.94;99133.19;685565;28;1085;-80
2023/04/13 01:53:41;;;;;;;1.70;1.35;;;;;;;9.37;57.17;99134.03;685768;28;889;-80
2023/04/13 01:54:24;;;;;;;1.80;1.13;;;;;;;9.44;56.75;99140.13;683572;28;1101;-79
2023/04/13 01:54:48;;;;;;;1.85;1.10;;;;;;;9.38;57.19;99143.56;682974;29;963;-80
2023/04/13 01:55:11;;;;;;;2.35;1.27;;;;;;;9.45;57.37;99152.28;682839;29;1093;-80
2023/04/13 01:55:37;;;;;;;1.92;1.25;;;;;;;9.36;56.95;99131.41;682987;29;987;-81
2023/04/13 01:55:59;;;;;;;1.92;1.25;;;;;;;9.40;57.07;99143.59;685499;28;1023;-80
2023/04/13 01:56:25;;;;;;;1.70;1.40;;;;;;;9.34;57.30;99125.31;688235;28;1369;-80
2023/04/13 01:56:55;;;;;;;1.40;1.30;;;;;;;9.30;57.39;99117.50;682745;29;1537;-80
2023/04/13 01:57:16;;;;;;;1.60;1.30;;;;;;;9.39;57.58;99132.28;682846;29;1082;-80
2023/04/13 01:57:40;;;;;;;1.73;1.30;;;;;;;9.30;57.65;99121.81;682764;29;1350;-80
2023/04/13 01:58:04;;;;;;;1.42;1.20;;;;;;;9.36;57.71;99141.81;685406;28;1169;-80
2023/04/13 01:58:27;;;;;;;3.75;1.40;;;;;;;9.35;57.78;99140.97;682957;29;1274;-80
2023/04/13 01:58:57;;;;;;;4.60;1.30;;;;;;;9.28;57.92;99118.34;680247;29;1349;-80
2023/04/13 01:59:21;;;;;;;2.15;1.17;;;;;;;9.23;58.05;99128.72;680191;29;1034;-79
2023/04/13 01:59:43;;;;;;;1.42;1.10;;;;;;;9.35;58.31;99125.34;682721;29;1982;-80